createdAt,value
2023-02-12T00:00:08.700Z,26.73
2023-02-12T00:02:42.188Z,24.00
2023-02-12T00:05:09.410Z,19.30
2023-02-12T00:07:36.488Z,18.55
2023-02-12T00:10:04.255Z,24.67
2023-02-12T00:12:31.365Z,22.65
2023-02-12T00:14:58.463Z,23.02
2023-02-12T00:17:25.573Z,20.50
2023-02-12T00:19:52.633Z,23.10
2023-02-12T00:22:19.723Z,22.45
2023-02-12T00:24:46.769Z,21.95
2023-02-12T00:27:13.906Z,22.98
2023-02-12T00:29:40.986Z,22.23
2023-02-12T00:32:08.090Z,26.33
2023-02-12T00:34:35.216Z,21.17
2023-02-12T00:37:02.359Z,25.17
2023-02-12T00:39:29.551Z,21.38
2023-02-12T00:41:56.687Z,21.40
2023-02-12T00:44:23.880Z,23.83
2023-02-12T00:46:51.179Z,24.30
2023-02-12T00:49:20.285Z,22.30
2023-02-12T00:51:47.382Z,25.30
2023-02-12T00:54:14.568Z,24.48
2023-02-12T00:56:41.742Z,23.77
2023-02-12T00:59:08.887Z,18.25
2023-02-12T01:01:36.210Z,23.30
2023-02-12T01:04:04.287Z,21.75
2023-02-12T01:06:31.417Z,21.02
2023-02-12T01:08:58.485Z,25.10
2023-02-12T01:11:25.601Z,23.83
2023-02-12T01:13:53.081Z,26.83
2023-02-12T01:16:22.483Z,22.10
2023-02-12T01:18:50.360Z,23.00
2023-02-12T01:21:19.028Z,23.42
2023-02-12T01:23:46.715Z,26.52
2023-02-12T01:26:14.907Z,20.17
2023-02-12T01:28:43.289Z,25.83
2023-02-12T01:31:12.006Z,25.15
2023-02-12T01:33:39.332Z,23.90
2023-02-12T01:36:06.724Z,23.38
2023-02-12T01:38:33.871Z,22.08
2023-02-12T01:41:06.136Z,24.35
2023-02-12T01:43:34.270Z,26.55
2023-02-12T01:46:01.911Z,23.85
2023-02-12T01:48:30.971Z,21.23
2023-02-12T01:50:58.480Z,22.67
2023-02-12T01:53:29.950Z,23.45
2023-02-12T01:55:59.035Z,19.30
2023-02-12T01:58:27.524Z,21.35
2023-02-12T02:00:54.726Z,22.58
2023-02-12T02:03:22.290Z,21.98
2023-02-12T02:06:16.337Z,22.23
2023-02-12T02:08:43.482Z,24.23
2023-02-12T02:11:29.856Z,23.05
2023-02-12T02:14:19.389Z,27.92
2023-02-12T02:16:51.281Z,25.98
2023-02-12T02:19:22.032Z,29.50
2023-02-12T02:22:02.809Z,25.13
2023-02-12T02:24:38.828Z,26.10
2023-02-12T02:27:30.860Z,27.02
2023-02-12T02:30:19.134Z,29.38
2023-02-12T02:32:52.266Z,24.50
2023-02-12T02:35:25.112Z,26.50
2023-02-12T02:37:57.535Z,27.42
2023-02-12T02:40:27.645Z,23.73
2023-02-12T02:43:09.796Z,25.30
2023-02-12T02:45:39.921Z,26.13
2023-02-12T02:48:13.208Z,25.52
2023-02-12T02:53:27.316Z,26.02
2023-02-12T02:55:56.201Z,24.63
2023-02-12T02:58:27.254Z,21.90
2023-02-12T03:01:17.927Z,25.15
2023-02-12T03:03:54.763Z,25.73
2023-02-12T03:06:42.075Z,25.60
2023-02-12T03:09:23.698Z,26.63
2023-02-12T03:11:51.293Z,23.38
2023-02-12T03:14:27.384Z,25.83
2023-02-12T03:17:11.394Z,26.20
2023-02-12T03:19:42.891Z,30.08
2023-02-12T03:22:11.723Z,26.60
2023-02-12T03:24:54.496Z,27.02
2023-02-12T03:27:33.290Z,28.23
2023-02-12T03:30:00.939Z,24.00
2023-02-12T03:32:43.280Z,29.15
2023-02-12T03:35:17.239Z,29.05
2023-02-12T03:38:06.528Z,27.40
2023-02-12T03:40:35.601Z,27.15
2023-02-12T03:43:09.560Z,30.23
2023-02-12T03:45:51.014Z,27.63
2023-02-12T03:48:25.116Z,25.55
2023-02-12T03:50:52.190Z,25.88
2023-02-12T03:53:19.491Z,26.83
2023-02-12T03:55:49.022Z,26.35
2023-02-12T03:58:19.064Z,28.55
2023-02-12T04:00:46.691Z,26.92
2023-02-12T04:03:13.991Z,29.38
2023-02-12T04:05:41.108Z,27.30
2023-02-12T04:08:09.009Z,27.98
2023-02-12T04:11:03.876Z,27.23
2023-02-12T04:13:39.905Z,25.48
2023-02-12T04:16:26.147Z,23.92
2023-02-12T04:18:54.202Z,27.98
2023-02-12T04:21:24.100Z,26.15
2023-02-12T04:23:59.749Z,25.58
2023-02-12T04:26:43.575Z,26.70
2023-02-12T04:29:33.133Z,27.85
2023-02-12T04:32:06.151Z,28.40
2023-02-12T04:34:33.284Z,29.52
2023-02-12T04:37:06.620Z,29.27
2023-02-12T04:39:36.556Z,29.33
2023-02-12T04:42:04.114Z,28.20
2023-02-12T04:44:32.807Z,26.65
2023-02-12T04:47:00.497Z,31.35
2023-02-12T04:49:28.138Z,29.40
2023-02-12T04:51:55.244Z,27.42
2023-02-12T04:54:23.147Z,27.58
2023-02-12T04:56:50.487Z,27.70
2023-02-12T04:59:17.618Z,28.38
2023-02-12T05:01:45.494Z,29.10
2023-02-12T05:04:14.461Z,26.30
2023-02-12T05:06:41.979Z,27.65
2023-02-12T05:09:09.641Z,27.33
2023-02-12T05:11:36.753Z,28.83
2023-02-12T05:14:03.900Z,26.67
2023-02-12T05:16:31.003Z,29.23
2023-02-12T05:18:58.301Z,28.83
2023-02-12T05:21:25.408Z,28.75
2023-02-12T05:23:52.487Z,27.85
2023-02-12T05:26:22.247Z,26.38
2023-02-12T05:28:49.481Z,28.88
2023-02-12T05:31:21.032Z,25.75
2023-02-12T05:33:48.940Z,29.63
2023-02-12T05:36:17.522Z,25.98
2023-02-12T05:38:45.250Z,29.25
2023-02-12T05:41:13.640Z,29.83
2023-02-12T05:43:41.181Z,29.42
2023-02-12T05:46:08.747Z,27.20
2023-02-12T05:48:36.183Z,28.35
2023-02-12T05:51:07.272Z,28.58
2023-02-12T05:53:34.441Z,27.10
2023-02-12T05:56:13.043Z,27.55
2023-02-12T05:58:40.808Z,28.00
2023-02-12T06:01:15.501Z,26.33
2023-02-12T06:03:42.855Z,33.20
2023-02-12T06:06:10.412Z,25.30
2023-02-12T06:08:37.972Z,28.75
2023-02-12T06:11:06.116Z,32.42
2023-02-12T06:13:33.648Z,27.48
2023-02-12T06:16:01.160Z,26.17
2023-02-12T06:18:28.803Z,30.38
2023-02-12T06:20:56.313Z,28.70
2023-02-12T06:23:24.245Z,29.90
2023-02-12T06:25:51.971Z,28.23
2023-02-12T06:28:19.052Z,27.48
2023-02-12T06:30:46.278Z,28.33
2023-02-12T06:33:13.412Z,28.67
2023-02-12T06:35:40.535Z,25.73
2023-02-12T06:38:07.950Z,25.45
2023-02-12T06:40:35.010Z,25.67
2023-02-12T06:43:02.159Z,27.08
2023-02-12T06:45:29.315Z,26.80
2023-02-12T06:47:56.414Z,27.42
2023-02-12T06:50:23.465Z,28.58
2023-02-12T06:52:50.629Z,27.77
2023-02-12T06:55:17.840Z,30.85
2023-02-12T06:57:44.894Z,25.98
2023-02-12T07:00:12.559Z,27.25
2023-02-12T07:02:39.820Z,27.75
2023-02-12T07:05:07.037Z,27.48
2023-02-12T07:07:34.165Z,28.10
2023-02-12T07:10:01.342Z,28.98
2023-02-12T07:12:28.569Z,28.38
2023-02-12T07:14:55.681Z,28.10
2023-02-12T07:17:22.781Z,27.13
2023-02-12T07:19:49.891Z,26.80
2023-02-12T07:22:17.036Z,29.20
2023-02-12T07:24:44.124Z,26.80
2023-02-12T07:27:11.188Z,31.63
2023-02-12T07:29:38.241Z,28.63
2023-02-12T07:32:05.480Z,23.05
2023-02-12T07:34:32.671Z,26.98
2023-02-12T07:36:59.825Z,28.25
2023-02-12T07:39:26.964Z,26.83
2023-02-12T07:41:54.080Z,26.85
2023-02-12T07:44:21.292Z,24.02
2023-02-12T07:46:49.423Z,27.75
2023-02-12T07:49:18.406Z,30.38
2023-02-12T07:51:45.743Z,24.95
2023-02-12T07:54:12.974Z,22.70
2023-02-12T07:56:41.086Z,28.02
2023-02-12T07:59:09.366Z,24.20
2023-02-12T08:01:37.720Z,28.25
2023-02-12T08:04:06.466Z,25.35
2023-02-12T08:06:34.898Z,26.40
2023-02-12T08:09:02.849Z,25.55
2023-02-12T08:11:30.709Z,26.92
2023-02-12T08:13:58.763Z,26.05
2023-02-12T08:16:26.902Z,23.52
2023-02-12T08:18:54.537Z,21.95
2023-02-12T08:21:22.990Z,22.92
2023-02-12T08:23:50.700Z,25.38
2023-02-12T08:26:22.311Z,23.58
2023-02-12T08:29:06.362Z,24.40
2023-02-12T08:31:35.221Z,25.58
2023-02-12T08:34:02.334Z,25.33
2023-02-12T08:36:31.047Z,23.17
2023-02-12T08:38:58.913Z,23.42
2023-02-12T08:41:27.770Z,22.90
2023-02-12T08:43:55.920Z,23.27
2023-02-12T08:46:24.435Z,23.00
2023-02-12T08:48:55.534Z,22.58
2023-02-12T08:51:27.082Z,23.20
2023-02-12T08:53:55.344Z,22.23
2023-02-12T08:56:22.806Z,27.55
2023-02-12T08:58:50.171Z,21.40
2023-02-12T09:01:27.331Z,23.98
2023-02-12T09:03:54.573Z,22.60
2023-02-12T09:06:22.503Z,23.58
2023-02-12T09:08:49.909Z,24.02
2023-02-12T09:11:18.571Z,21.65
2023-02-12T09:13:46.817Z,21.98
2023-02-12T09:16:14.619Z,22.52
2023-02-12T09:18:42.111Z,20.13
2023-02-12T09:21:11.916Z,20.33
2023-02-12T09:23:39.662Z,20.10
2023-02-12T09:26:07.842Z,21.70
2023-02-12T09:28:35.633Z,21.02
2023-02-12T09:31:06.886Z,18.75
2023-02-12T09:33:34.183Z,20.60
2023-02-12T09:36:02.752Z,21.92
2023-02-12T09:38:29.975Z,17.33
2023-02-12T09:41:06.632Z,18.63
2023-02-12T09:43:40.784Z,18.73
2023-02-12T09:46:13.926Z,17.40
2023-02-12T09:51:09.752Z,16.83
2023-02-12T09:53:41.259Z,19.23
2023-02-12T09:56:15.398Z,18.75
2023-02-12T09:58:45.133Z,17.27
2023-02-12T10:01:13.873Z,19.05
2023-02-12T10:03:41.227Z,18.27
2023-02-12T10:06:09.677Z,16.85
2023-02-12T10:08:45.900Z,19.08
2023-02-12T10:11:15.846Z,18.73
2023-02-12T10:13:56.840Z,15.93
2023-02-12T10:16:41.506Z,19.58
2023-02-12T10:19:21.427Z,19.27
2023-02-12T10:21:52.996Z,19.50
2023-02-12T10:24:20.054Z,19.38
2023-02-12T10:26:50.854Z,17.85
2023-02-12T10:29:19.599Z,19.08
2023-02-12T10:31:49.717Z,19.92
2023-02-12T10:34:21.617Z,22.00
2023-02-12T10:36:49.833Z,22.63
2023-02-12T10:39:21.620Z,22.05
2023-02-12T10:42:36.685Z,21.40
2023-02-12T10:45:04.036Z,25.40
2023-02-12T10:47:31.256Z,18.50
2023-02-12T10:50:03.336Z,21.05
2023-02-12T10:52:47.606Z,21.67
2023-02-12T10:55:32.191Z,24.02
2023-02-12T10:58:00.176Z,24.35
2023-02-12T11:00:31.336Z,22.52
2023-02-12T11:03:06.178Z,22.52
2023-02-12T11:05:35.862Z,25.40
2023-02-12T11:08:03.447Z,23.25
2023-02-12T11:10:32.009Z,23.92
2023-02-12T11:13:02.625Z,27.70
2023-02-12T11:15:46.715Z,27.52
2023-02-12T11:18:22.524Z,25.65
2023-02-12T11:20:51.122Z,28.17
2023-02-12T11:23:30.191Z,28.45
2023-02-12T11:26:02.397Z,26.85
2023-02-12T11:28:30.359Z,27.83
2023-02-12T11:31:02.577Z,24.70
2023-02-12T11:33:32.646Z,25.50
2023-02-12T11:36:01.820Z,24.70
2023-02-12T11:38:37.936Z,28.23
2023-02-12T11:41:09.615Z,26.67
2023-02-12T11:43:39.436Z,23.05
2023-02-12T11:46:08.585Z,25.42
2023-02-12T11:48:38.998Z,23.92
2023-02-12T11:51:09.043Z,27.33
2023-02-12T11:53:38.228Z,26.60
2023-02-12T11:56:08.216Z,23.48
2023-02-12T11:58:36.117Z,26.60
2023-02-12T12:01:09.598Z,25.60
2023-02-12T12:03:36.745Z,23.55
2023-02-12T12:06:15.152Z,25.42
2023-02-12T12:08:44.988Z,22.95
2023-02-12T12:11:12.756Z,25.92
2023-02-12T12:13:43.416Z,22.58
2023-02-12T12:16:35.155Z,23.95
2023-02-12T12:19:39.301Z,24.88
2023-02-12T12:22:44.108Z,23.77
2023-02-12T12:28:03.181Z,26.85
2023-02-12T12:30:42.462Z,24.58
2023-02-12T12:33:38.294Z,24.40
2023-02-12T12:36:14.544Z,20.98
2023-02-12T12:39:17.067Z,24.00
2023-02-12T12:42:02.555Z,24.65
2023-02-12T12:44:30.112Z,23.58
2023-02-12T12:47:03.670Z,23.08
2023-02-12T12:49:37.990Z,23.02
2023-02-12T12:52:10.978Z,21.80
2023-02-12T12:54:44.384Z,19.75
2023-02-12T12:59:56.361Z,19.35
2023-02-12T13:02:29.605Z,19.88
2023-02-12T13:05:19.807Z,19.83
2023-02-12T13:07:52.884Z,19.10
2023-02-12T13:10:24.400Z,19.80
2023-02-12T13:13:00.371Z,19.98
2023-02-12T13:15:30.211Z,17.95
2023-02-12T13:18:12.412Z,19.55
2023-02-12T13:20:51.451Z,19.10
2023-02-12T13:23:27.485Z,17.33
2023-02-12T13:25:54.953Z,21.25
2023-02-12T13:28:31.597Z,22.80
2023-02-12T13:30:59.977Z,17.70
2023-02-12T13:33:37.343Z,17.35
2023-02-12T13:36:06.776Z,23.42
2023-02-12T13:38:37.781Z,21.50
2023-02-12T13:41:10.141Z,17.02
2023-02-12T13:43:37.248Z,19.30
2023-02-12T13:46:04.441Z,18.50
2023-02-12T13:48:37.360Z,21.67
2023-02-12T13:51:04.451Z,19.75
2023-02-12T13:54:08.693Z,19.45
2023-02-12T13:56:44.912Z,18.30
2023-02-12T13:59:33.115Z,16.23
2023-02-12T14:02:02.341Z,16.90
2023-02-12T14:04:31.267Z,18.80
2023-02-12T14:07:01.583Z,18.83
2023-02-12T14:09:35.238Z,16.52
2023-02-12T14:12:03.277Z,16.08
2023-02-12T14:14:32.979Z,19.60
2023-02-12T14:17:20.083Z,16.63
2023-02-12T14:19:55.623Z,17.30
2023-02-12T14:22:25.420Z,16.05
2023-02-12T14:24:53.561Z,18.90
2023-02-12T14:27:24.234Z,18.92
2023-02-12T14:30:09.992Z,16.23
2023-02-12T14:35:31.308Z,17.95
2023-02-12T14:38:00.026Z,22.10
2023-02-12T14:40:43.981Z,19.23
2023-02-12T14:43:28.275Z,17.15
2023-02-12T14:46:00.042Z,18.27
2023-02-12T14:48:41.387Z,17.65
2023-02-12T14:51:15.219Z,16.65
2023-02-12T14:53:42.742Z,17.65
2023-02-12T14:56:11.112Z,19.27
2023-02-12T14:58:38.397Z,17.70
2023-02-12T15:01:05.589Z,18.27
2023-02-12T15:03:39.378Z,19.35
2023-02-12T15:06:17.905Z,20.92
2023-02-12T15:08:47.821Z,17.48
2023-02-12T15:11:21.699Z,20.13
2023-02-12T15:13:50.538Z,18.17
2023-02-12T15:16:22.252Z,20.25
2023-02-12T15:18:53.062Z,24.05
2023-02-12T15:21:23.470Z,23.77
2023-02-12T15:24:06.062Z,22.45
2023-02-12T15:26:35.251Z,20.38
2023-02-12T15:29:03.231Z,19.35
2023-02-12T15:31:31.447Z,18.85
2023-02-12T15:33:59.877Z,19.70
2023-02-12T15:36:28.420Z,19.35
2023-02-12T15:38:57.072Z,18.05
2023-02-12T15:41:29.877Z,18.85
2023-02-12T15:43:57.489Z,18.20
2023-02-12T15:46:25.108Z,21.23
2023-02-12T15:48:55.378Z,20.90
2023-02-12T15:51:35.894Z,18.67
2023-02-12T15:54:08.158Z,23.27
2023-02-12T15:59:06.440Z,42.10
2023-02-12T16:01:35.222Z,23.38
2023-02-12T16:04:03.827Z,22.98
2023-02-12T16:06:34.287Z,20.23
2023-02-12T16:09:09.722Z,21.08
2023-02-12T16:11:37.471Z,18.77
2023-02-12T16:14:05.688Z,21.13
2023-02-12T16:16:48.651Z,21.17
2023-02-12T16:19:23.031Z,21.60
2023-02-12T16:22:00.725Z,19.92
2023-02-12T16:24:29.644Z,20.70
2023-02-12T16:26:57.456Z,20.48
2023-02-12T16:29:24.880Z,20.75
2023-02-12T16:31:56.371Z,20.52
2023-02-12T16:34:27.898Z,19.00
2023-02-12T16:36:55.194Z,18.25
2023-02-12T16:39:53.775Z,17.80
2023-02-12T16:42:25.417Z,22.40
2023-02-12T16:44:52.840Z,18.70
2023-02-12T16:47:21.663Z,19.73
2023-02-12T16:49:56.457Z,17.23
2023-02-12T16:52:32.537Z,19.13
2023-02-12T16:54:59.702Z,18.25
2023-02-12T16:57:26.852Z,22.60
2023-02-12T16:59:54.011Z,23.98
2023-02-12T17:02:21.155Z,21.13
2023-02-12T17:04:48.222Z,25.45
2023-02-12T17:07:29.024Z,22.63
2023-02-12T17:09:56.278Z,25.05
2023-02-12T17:12:23.457Z,26.35
2023-02-12T17:14:50.614Z,23.10
2023-02-12T17:17:17.825Z,25.23
2023-02-12T17:19:44.927Z,24.13
2023-02-12T17:22:20.252Z,27.83
2023-02-12T17:24:51.354Z,27.00
2023-02-12T17:27:18.988Z,32.10
2023-02-12T17:29:46.139Z,35.03
2023-02-12T17:32:13.549Z,35.25
2023-02-12T17:34:48.497Z,35.17
2023-02-12T17:37:17.114Z,30.33
2023-02-12T17:39:44.353Z,25.83
2023-02-12T17:42:12.125Z,27.10
2023-02-12T17:44:39.944Z,25.73
2023-02-12T17:47:07.084Z,24.63
2023-02-12T17:49:35.427Z,26.25
2023-02-12T17:52:04.786Z,27.73
2023-02-12T17:54:33.607Z,27.55
2023-02-12T17:57:00.693Z,26.05
2023-02-12T17:59:27.857Z,27.05
2023-02-12T18:01:54.992Z,25.33
2023-02-12T18:04:22.158Z,20.52
2023-02-12T18:06:49.332Z,25.73
2023-02-12T18:09:16.493Z,23.77
2023-02-12T18:11:43.611Z,25.80
2023-02-12T18:14:11.640Z,27.13
2023-02-12T18:16:38.776Z,24.73
2023-02-12T18:19:06.215Z,25.58
2023-02-12T18:21:34.972Z,26.08
2023-02-12T18:24:02.490Z,26.60
2023-02-12T18:26:29.578Z,31.60
2023-02-12T18:29:00.216Z,29.25
2023-02-12T18:31:27.496Z,27.92
2023-02-12T18:33:54.793Z,27.55
2023-02-12T18:36:22.891Z,28.88
2023-02-12T18:38:51.221Z,27.27
2023-02-12T18:41:20.224Z,30.67
2023-02-12T18:43:47.904Z,27.33
2023-02-12T18:46:16.463Z,28.17
2023-02-12T18:48:43.963Z,28.40
2023-02-12T18:51:13.910Z,26.30
2023-02-12T18:53:41.019Z,24.17
2023-02-12T18:56:09.271Z,26.50
2023-02-12T18:58:36.977Z,26.25
2023-02-12T19:01:18.000Z,26.40
2023-02-12T19:03:45.709Z,35.92
2023-02-12T19:06:13.106Z,32.83
2023-02-12T19:08:40.318Z,27.55
2023-02-12T19:11:08.510Z,27.15
2023-02-12T19:13:35.889Z,29.92
2023-02-12T19:16:07.353Z,27.88
2023-02-12T19:18:34.442Z,27.17
2023-02-12T19:21:06.033Z,25.80
2023-02-12T19:23:33.096Z,26.40
2023-02-12T19:26:18.002Z,25.55
2023-02-12T19:28:45.182Z,25.60
2023-02-12T19:31:15.319Z,26.63
2023-02-12T19:33:43.433Z,29.05
2023-02-12T19:36:11.665Z,28.95
2023-02-12T19:38:39.211Z,31.23
2023-02-12T19:41:07.305Z,27.35
2023-02-12T19:43:34.480Z,27.40
2023-02-12T19:46:09.062Z,28.08
2023-02-12T19:48:36.708Z,30.45
2023-02-12T19:51:04.012Z,27.23
2023-02-12T19:53:31.167Z,29.48
2023-02-12T19:56:01.496Z,29.90
2023-02-12T19:58:29.256Z,29.73
2023-02-12T20:00:56.632Z,28.75
2023-02-12T20:03:23.871Z,30.27
2023-02-12T20:05:53.102Z,31.75
2023-02-12T20:08:20.404Z,34.92
2023-02-12T20:10:47.544Z,33.30
2023-02-12T20:13:14.621Z,35.55
2023-02-12T20:15:41.675Z,32.72
2023-02-12T20:18:08.849Z,35.08
2023-02-12T20:20:36.266Z,33.13
2023-02-12T20:23:03.398Z,36.00
2023-02-12T20:25:30.981Z,30.30
2023-02-12T20:27:58.277Z,33.17
2023-02-12T20:30:25.719Z,32.97
2023-02-12T20:32:52.868Z,30.30
2023-02-12T20:35:20.043Z,32.28
2023-02-12T20:37:47.182Z,33.30
2023-02-12T20:40:14.295Z,31.33
2023-02-12T20:42:41.414Z,30.40
2023-02-12T20:45:08.782Z,36.00
2023-02-12T20:47:35.868Z,35.20
2023-02-12T20:50:04.226Z,34.50
2023-02-12T20:52:32.043Z,36.22
2023-02-12T20:54:59.108Z,35.22
2023-02-12T20:57:26.372Z,32.97
2023-02-12T20:59:53.423Z,31.88
2023-02-12T21:02:20.659Z,34.25
2023-02-12T21:04:47.723Z,33.08
2023-02-12T21:07:14.886Z,33.65
2023-02-12T21:09:42.012Z,36.17
2023-02-12T21:12:09.143Z,31.90
2023-02-12T21:14:36.351Z,37.53
2023-02-12T21:17:03.439Z,33.83
2023-02-12T21:19:30.506Z,32.90
2023-02-12T21:21:57.669Z,33.15
2023-02-12T21:24:25.871Z,40.28
2023-02-12T21:26:54.029Z,35.08
2023-02-12T21:29:21.184Z,33.42
2023-02-12T21:31:49.217Z,37.05
2023-02-12T21:34:17.489Z,39.15
2023-02-12T21:36:45.559Z,34.60
2023-02-12T21:39:14.151Z,39.38
2023-02-12T21:41:42.158Z,42.10
2023-02-12T21:44:11.949Z,39.65
2023-02-12T21:46:39.308Z,39.50
2023-02-12T21:49:06.746Z,43.90
2023-02-12T21:51:38.004Z,38.90
2023-02-12T21:54:15.295Z,37.05
2023-02-12T21:56:43.779Z,37.97
2023-02-12T21:59:11.340Z,35.53
2023-02-12T22:01:42.658Z,37.78
2023-02-12T22:04:10.142Z,33.22
2023-02-12T22:06:38.404Z,33.92
2023-02-12T22:09:09.108Z,35.17
2023-02-12T22:11:40.315Z,36.50
2023-02-12T22:14:08.283Z,37.30
2023-02-12T22:16:36.090Z,34.85
2023-02-12T22:19:04.163Z,40.63
2023-02-12T22:21:33.144Z,36.33
2023-02-12T22:24:04.351Z,34.17
2023-02-12T22:26:32.009Z,39.85
2023-02-12T22:29:00.355Z,35.75
2023-02-12T22:31:29.261Z,36.28
2023-02-12T22:33:58.402Z,35.50
2023-02-12T22:36:26.185Z,32.67
2023-02-12T22:38:54.421Z,34.30
2023-02-12T22:41:21.970Z,33.60
2023-02-12T22:43:49.402Z,35.92
2023-02-12T22:46:16.916Z,31.17
2023-02-12T22:48:44.269Z,35.13
2023-02-12T22:51:18.627Z,34.92
2023-02-12T22:53:45.749Z,39.05
2023-02-12T22:56:12.964Z,36.28
2023-02-12T22:58:40.475Z,31.90
2023-02-12T23:01:14.987Z,32.15
2023-02-12T23:03:42.632Z,35.33
2023-02-12T23:06:11.781Z,33.10
2023-02-12T23:08:38.878Z,34.10
2023-02-12T23:11:07.180Z,33.92
2023-02-12T23:13:35.955Z,34.30
2023-02-12T23:16:03.287Z,31.23
2023-02-12T23:18:30.425Z,30.02
2023-02-12T23:20:58.040Z,37.95
2023-02-12T23:23:25.333Z,36.67
2023-02-12T23:25:54.300Z,31.27
2023-02-12T23:28:21.731Z,31.33
2023-02-12T23:30:49.744Z,33.40
2023-02-12T23:33:16.992Z,28.17
2023-02-12T23:35:44.918Z,33.72
2023-02-12T23:38:12.126Z,30.50
2023-02-12T23:40:39.229Z,30.95
2023-02-12T23:43:06.396Z,28.85
2023-02-12T23:45:33.511Z,31.85
2023-02-12T23:48:00.588Z,33.20
2023-02-12T23:50:27.658Z,31.67
2023-02-12T23:52:54.759Z,30.13
2023-02-12T23:55:21.929Z,32.97
2023-02-12T23:57:50.424Z,29.42
